Time;durP1;ratioP1;P1;durP2;ratioP2;P2;SDS_P1;SDS_P2;PMS_P1;PMS_P2;Temp;Humidity;BMP_temperature;BMP_pressure;BME280_temperature;BME280_humidity;BME280_pressure;Samples;Min_cycle;Max_cycle;Signal;HPM_P1;HPM_P2
2022/08/25 00:00:39;;;;;;;34.10;27.95;;;21.40;99.90;;;;;;5012592;28;20124;-72
2022/08/25 00:03:04;;;;;;;40.08;32.30;;;21.40;99.90;;;;;;5013487;28;20435;-72
2022/08/25 00:05:30;;;;;;;42.65;31.50;;;21.30;99.90;;;;;;5011860;28;20095;-72
2022/08/25 00:07:56;;;;;;;46.88;34.88;;;21.50;99.90;;;;;;5012084;28;20049;-72
2022/08/25 00:10:22;;;;;;;46.70;34.78;;;21.30;99.90;;;;;;5012390;28;20064;-73
2022/08/25 00:12:47;;;;;;;41.38;33.25;;;21.20;99.90;;;;;;5013588;28;20128;-73
2022/08/25 00:15:13;;;;;;;47.97;32.75;;;21.60;99.90;;;;;;5013124;28;20073;-72
2022/08/25 00:17:39;;;;;;;56.47;36.83;;;21.30;99.90;;;;;;5013451;28;20050;-72
2022/08/25 00:20:05;;;;;;;54.90;36.30;;;21.30;99.90;;;;;;5012018;28;20034;-72
2022/08/25 00:22:31;;;;;;;52.30;32.22;;;21.20;99.90;;;;;;5013064;28;20499;-72
2022/08/25 00:24:57;;;;;;;55.35;36.97;;;21.40;99.90;;;;;;5011486;28;20045;-72
2022/08/25 00:27:22;;;;;;;52.75;34.47;;;21.20;99.90;;;;;;5013224;28;20038;-73
2022/08/25 00:29:49;;;;;;;52.67;34.28;;;22.70;99.90;;;;;;5013175;28;20534;-72
2022/08/25 00:32:17;;;;;;;52.58;33.97;;;21.30;99.90;;;;;;5011703;28;20127;-72
2022/08/25 00:34:43;;;;;;;46.28;31.58;;;21.50;99.90;;;;;;5012569;28;20050;-72
2022/08/25 00:37:09;;;;;;;42.60;31.05;;;21.30;99.90;;;;;;5011619;28;20129;-72
2022/08/25 00:39:36;;;;;;;43.17;28.52;;;22.40;99.90;;;;;;5013027;28;20049;-72
2022/08/25 00:42:03;;;;;;;43.13;29.30;;;21.30;99.90;;;;;;5012749;28;20411;-72
2022/08/25 00:44:32;;;;;;;35.58;27.02;;;21.60;99.90;;;;;;5011297;28;20249;-72
2022/08/25 00:47:00;;;;;;;37.17;27.35;;;21.50;99.90;;;;;;5012712;28;20108;-73
2022/08/25 00:49:46;;;;;;;32.88;23.55;;;21.10;99.90;;;;;;5012665;28;20048;-72
2022/08/25 00:52:32;;;;;;;32.58;23.73;;;22.30;99.90;;;;;;5011428;28;20049;-72
2022/08/25 00:55:04;;;;;;;30.45;21.33;;;22.00;99.90;;;;;;5011220;28;20485;-72
2022/08/25 00:57:39;;;;;;;29.35;22.25;;;22.20;99.90;;;;;;5011432;28;20088;-72
2022/08/25 01:00:34;;;;;;;28.17;20.63;;;21.70;99.90;;;;;;5012631;28;20038;-72
2022/08/25 01:03:00;;;;;;;27.02;20.75;;;21.20;99.90;;;;;;5011786;28;20065;-72
2022/08/25 01:05:27;;;;;;;25.65;19.02;;;21.30;99.90;;;;;;5012222;28;20038;-72
2022/08/25 01:07:55;;;;;;;30.75;18.75;;;21.40;99.90;;;;;;5011383;28;20045;-72
2022/08/25 01:10:22;;;;;;;24.80;17.25;;;21.40;99.90;;;;;;5012437;28;20037;-72
2022/08/25 01:12:49;;;;;;;25.33;17.45;;;21.20;99.90;;;;;;5011272;28;20392;-72
2022/08/25 01:15:15;;;;;;;22.80;16.73;;;21.30;99.90;;;;;;5010587;28;20511;-72
2022/08/25 01:17:53;;;;;;;19.70;15.35;;;21.90;99.90;;;;;;5010986;28;20500;-72
2022/08/25 01:20:23;;;;;;;20.00;15.75;;;21.20;99.90;;;;;;5012419;28;20037;-72
2022/08/25 01:22:51;;;;;;;19.05;13.90;;;21.10;99.90;;;;;;4994503;28;20049;-72
2022/08/25 01:25:32;;;;;;;17.77;12.75;;;21.00;99.90;;;;;;5011701;28;20030;-72
2022/08/25 01:27:58;;;;;;;19.08;13.90;;;21.10;99.90;;;;;;5012285;28;20038;-72
2022/08/25 01:30:24;;;;;;;18.65;12.60;;;21.20;99.90;;;;;;5010863;28;20492;-72
2022/08/25 01:32:49;;;;;;;18.33;12.02;;;21.10;99.90;;;;;;5012087;28;20042;-72
2022/08/25 01:35:15;;;;;;;17.42;13.95;;;22.20;99.90;;;;;;5011754;28;20049;-72
2022/08/25 01:37:41;;;;;;;12.77;11.00;;;21.10;99.90;;;;;;5010945;28;20077;-72
2022/08/25 01:40:07;;;;;;;14.07;12.20;;;21.10;99.90;;;;;;5010746;28;20155;-72
2022/08/25 01:42:52;;;;;;;13.48;10.55;;;21.00;99.90;;;;;;5010601;28;20046;-72
2022/08/25 01:45:18;;;;;;;13.98;10.45;;;21.10;99.90;;;;;;5011859;28;20539;-72
2022/08/25 01:47:44;;;;;;;12.88;10.32;;;20.80;99.90;;;;;;5010845;28;20500;-72
2022/08/25 01:50:10;;;;;;;11.93;9.32;;;21.10;99.90;;;;;;5010771;28;20137;-72
2022/08/25 01:52:54;;;;;;;9.95;8.63;;;20.80;99.90;;;;;;5011954;28;20053;-72
2022/08/25 01:55:19;;;;;;;9.95;8.38;;;21.10;99.90;;;;;;5011657;28;20187;-72
2022/08/25 01:57:45;;;;;;;10.57;7.78;;;20.90;99.90;;;;;;5012524;28;20137;-72
2022/08/25 02:00:13;;;;;;;9.82;7.50;;;22.30;99.90;;;;;;5014520;28;20045;-72
2022/08/25 02:02:39;;;;;;;9.20;6.53;;;20.90;99.90;;;;;;5014298;28;20042;-72
2022/08/25 02:05:06;;;;;;;8.25;7.35;;;20.80;99.90;;;;;;5015555;28;20038;-72
2022/08/25 02:07:31;;;;;;;10.18;6.20;;;21.00;99.90;;;;;;5015858;28;20038;-73
2022/08/25 02:09:57;;;;;;;13.23;6.15;;;21.00;99.90;;;;;;5014626;28;20045;-72
2022/08/25 02:12:23;;;;;;;11.25;5.72;;;20.90;99.90;;;;;;5014622;28;20403;-72
2022/08/25 02:14:49;;;;;;;9.07;5.80;;;21.00;99.90;;;;;;5013845;28;20054;-72
2022/08/25 02:17:16;;;;;;;11.13;6.15;;;21.00;99.90;;;;;;5015341;28;20044;-72
2022/08/25 02:19:41;;;;;;;7.65;5.32;;;20.80;99.90;;;;;;5014435;28;20045;-72
2022/08/25 02:22:07;;;;;;;8.63;5.03;;;20.80;99.90;;;;;;5014290;28;20041;-72
2022/08/25 02:24:33;;;;;;;7.00;5.00;;;21.20;99.90;;;;;;5015227;28;20038;-72
2022/08/25 02:26:59;;;;;;;8.13;4.70;;;22.10;99.90;;;;;;5020511;28;20038;-72
2022/08/25 02:29:25;;;;;;;7.72;4.65;;;20.90;99.90;;;;;;5022305;28;20041;-72
2022/08/25 02:31:50;;;;;;;6.25;4.40;;;20.80;99.90;;;;;;5019687;28;20117;-72
2022/08/25 02:34:16;;;;;;;6.80;4.30;;;21.90;99.90;;;;;;5013982;28;20040;-72
2022/08/25 02:36:42;;;;;;;8.75;3.97;;;20.80;99.90;;;;;;5013870;28;20042;-72
2022/08/25 02:39:09;;;;;;;8.23;4.10;;;20.70;99.90;;;;;;5013861;28;20044;-72
2022/08/25 02:41:35;;;;;;;5.40;3.50;;;20.60;99.90;;;;;;5013908;28;20045;-72
2022/08/25 02:44:04;;;;;;;8.15;3.80;;;20.60;99.90;;;;;;5013516;28;20046;-72
2022/08/25 02:46:29;;;;;;;6.45;3.63;;;20.80;99.90;;;;;;5013599;28;20108;-72
2022/08/25 02:48:55;;;;;;;7.82;3.80;;;21.50;99.90;;;;;;5015152;28;20037;-72
2022/08/25 02:51:24;;;;;;;6.60;3.97;;;21.40;99.90;;;;;;5013957;28;20041;-73
2022/08/25 02:53:50;;;;;;;6.28;3.67;;;20.60;99.90;;;;;;5015030;28;20427;-73
2022/08/25 02:56:18;;;;;;;7.40;3.70;;;20.80;99.90;;;;;;5014773;28;20510;-72
2022/08/25 02:58:44;;;;;;;4.95;3.70;;;20.70;99.90;;;;;;5014792;28;20404;-72
2022/08/25 03:01:10;;;;;;;8.35;3.28;;;20.90;99.90;;;;;;5013696;28;20522;-72
2022/08/25 03:03:41;;;;;;;5.05;3.63;;;21.30;99.90;;;;;;5014886;28;20041;-72
2022/08/25 03:06:08;;;;;;;4.70;3.50;;;20.60;99.90;;;;;;5013101;28;20033;-72
2022/08/25 03:08:34;;;;;;;6.18;3.13;;;20.80;99.90;;;;;;5013558;28;20042;-72
2022/08/25 03:11:00;;;;;;;5.53;3.22;;;20.50;99.90;;;;;;5014488;28;20515;-72
2022/08/25 03:13:26;;;;;;;7.43;3.58;;;20.70;99.90;;;;;;5013214;28;20049;-72
2022/08/25 03:15:51;;;;;;;8.35;3.30;;;20.50;99.90;;;;;;5014156;28;20084;-72
2022/08/25 03:18:17;;;;;;;8.48;3.15;;;21.10;99.90;;;;;;5013174;28;20049;-72
2022/08/25 03:20:43;;;;;;;6.85;3.10;;;20.60;99.90;;;;;;5013068;28;20107;-72
2022/08/25 03:23:09;;;;;;;5.43;3.17;;;20.70;99.90;;;;;;5013040;28;20088;-72
2022/08/25 03:28:19;;;;;;;6.50;3.10;;;20.60;99.90;;;;;;5014173;28;20050;-72
2022/08/25 03:30:45;;;;;;;6.55;2.80;;;20.60;99.90;;;;;;5013233;28;20040;-72
2022/08/25 03:33:11;;;;;;;6.20;3.58;;;20.60;99.90;;;;;;5013123;28;20038;-71
2022/08/25 03:35:36;;;;;;;8.05;3.38;;;20.90;99.90;;;;;;5012396;28;20034;-71
2022/08/25 03:38:03;;;;;;;6.70;3.00;;;21.00;99.90;;;;;;5014063;28;20096;-72
2022/08/25 03:40:28;;;;;;;6.68;3.25;;;20.70;99.90;;;;;;5012625;28;20496;-71
2022/08/25 03:42:55;;;;;;;7.43;3.80;;;20.80;99.90;;;;;;4996189;28;20037;-72
2022/08/25 03:45:21;;;;;;;4.05;2.85;;;20.40;99.90;;;;;;5012168;28;20042;-71
2022/08/25 03:47:49;;;;;;;5.68;3.13;;;20.50;99.90;;;;;;5013958;28;20121;-72
2022/08/25 03:50:16;;;;;;;7.43;3.03;;;20.50;99.90;;;;;;5012782;28;20042;-71
2022/08/25 03:52:42;;;;;;;5.25;3.67;;;20.70;99.90;;;;;;5013735;28;20049;-72
2022/08/25 03:55:10;;;;;;;6.05;3.10;;;21.90;99.90;;;;;;5011935;28;20042;-71
2022/08/25 03:57:36;;;;;;;3.88;2.65;;;20.90;99.90;;;;;;4995993;28;20046;-72
2022/08/25 04:00:05;;;;;;;7.20;3.38;;;20.60;99.90;;;;;;5012273;28;20048;-71
2022/08/25 04:02:32;;;;;;;7.97;3.00;;;20.20;99.90;;;;;;5013602;28;20050;-71
2022/08/25 04:04:58;;;;;;;4.22;2.88;;;20.40;99.90;;;;;;5011913;28;20042;-71
2022/08/25 04:07:23;;;;;;;7.22;2.80;;;21.80;99.90;;;;;;5012177;28;20034;-71
2022/08/25 04:09:49;;;;;;;10.20;3.50;;;21.30;99.90;;;;;;5012139;28;20049;-72
2022/08/25 04:12:14;;;;;;;5.90;3.13;;;20.50;99.90;;;;;;5012107;28;20424;-72
2022/08/25 04:14:41;;;;;;;7.40;3.65;;;20.30;99.90;;;;;;4995595;28;20040;-72
2022/08/25 04:17:07;;;;;;;8.20;3.10;;;20.60;99.90;;;;;;5013527;28;20046;-72
2022/08/25 04:19:33;;;;;;;5.75;3.35;;;20.30;99.90;;;;;;5011889;28;20419;-72
2022/08/25 04:21:58;;;;;;;5.28;3.15;;;20.90;99.90;;;;;;4997581;28;20128;-71
2022/08/25 04:24:24;;;;;;;5.97;3.05;;;20.20;99.90;;;;;;5020926;28;20352;-71
2022/08/25 04:26:50;;;;;;;7.18;3.30;;;20.20;99.90;;;;;;5020309;28;20040;-72
2022/08/25 04:29:19;;;;;;;5.40;2.78;;;20.60;99.90;;;;;;5022484;28;20068;-72
2022/08/25 04:31:46;;;;;;;4.85;2.50;;;21.10;99.90;;;;;;5021345;28;20075;-72
2022/08/25 04:34:12;;;;;;;5.43;3.10;;;20.20;99.90;;;;;;5020016;28;20065;-72
2022/08/25 04:36:38;;;;;;;3.97;3.08;;;20.60;99.90;;;;;;5021989;28;20086;-72
2022/08/25 04:39:05;;;;;;;6.25;3.03;;;20.10;99.90;;;;;;5030915;28;20041;-72
2022/08/25 04:41:30;;;;;;;4.30;3.00;;;20.10;99.90;;;;;;5004633;28;20108;-72
2022/08/25 04:43:58;;;;;;;7.97;3.38;;;20.00;99.90;;;;;;5012625;28;20096;-71
2022/08/25 04:46:26;;;;;;;4.35;3.10;;;20.00;99.90;;;;;;5012866;28;20038;-72
2022/08/25 04:48:54;;;;;;;5.97;3.22;;;19.90;99.90;;;;;;4995144;28;20117;-72
2022/08/25 04:51:46;;;;;;;8.90;3.00;;;20.20;99.90;;;;;;5011416;28;20046;-72
2022/08/25 04:54:15;;;;;;;6.85;3.17;;;20.10;99.90;;;;;;5009495;28;20381;-72
2022/08/25 04:56:41;;;;;;;5.50;2.70;;;20.10;99.90;;;;;;5011493;28;20129;-72
2022/08/25 04:59:10;;;;;;;5.35;2.90;;;20.80;99.90;;;;;;5012763;28;20044;-72
2022/08/25 05:01:37;;;;;;;7.43;3.20;;;20.30;99.90;;;;;;5013068;28;20042;-72
2022/08/25 05:04:05;;;;;;;7.30;3.20;;;21.20;99.90;;;;;;5011167;28;20038;-72
2022/08/25 05:06:31;;;;;;;6.88;3.10;;;20.50;99.90;;;;;;5012636;28;20044;-72
2022/08/25 05:08:58;;;;;;;4.38;3.20;;;20.20;99.90;;;;;;5011476;28;20484;-72
2022/08/25 05:11:25;;;;;;;6.50;3.00;;;20.40;99.90;;;;;;5011364;28;20037;-72
2022/08/25 05:13:52;;;;;;;4.50;3.45;;;20.20;99.90;;;;;;5012315;28;20048;-72
2022/08/25 05:16:19;;;;;;;8.10;3.03;;;20.20;99.90;;;;;;5010642;28;20492;-72
2022/08/25 05:18:45;;;;;;;5.25;3.63;;;20.40;99.90;;;;;;5017062;28;20442;-72
2022/08/25 05:21:14;;;;;;;6.32;3.20;;;20.20;99.90;;;;;;5030683;28;20041;-72
2022/08/25 05:23:40;;;;;;;4.25;2.85;;;20.40;99.90;;;;;;5030673;28;20466;-72
2022/08/25 05:26:10;;;;;;;5.32;2.90;;;20.20;99.90;;;;;;5030246;28;20038;-72
2022/08/25 05:28:39;;;;;;;6.68;3.53;;;20.10;99.90;;;;;;5030806;28;20045;-72
2022/08/25 05:31:05;;;;;;;13.73;4.25;;;20.20;99.90;;;;;;5030227;28;20412;-71
2022/08/25 05:33:31;;;;;;;5.30;3.22;;;20.20;99.90;;;;;;5013717;28;20168;-72
2022/08/25 05:35:56;;;;;;;6.07;3.33;;;20.30;99.90;;;;;;5032006;28;20121;-72
2022/08/25 05:38:22;;;;;;;12.60;3.47;;;21.00;99.90;;;;;;5045279;28;20042;-72
2022/08/25 05:41:00;;;;;;;4.45;2.90;;;20.80;99.90;;;;;;5047123;28;20474;-71
2022/08/25 05:43:25;;;;;;;6.75;3.20;;;20.40;99.90;;;;;;5034655;28;20052;-71
2022/08/25 05:45:56;;;;;;;6.70;2.90;;;20.40;99.90;;;;;;5031647;28;20037;-72
2022/08/25 05:48:25;;;;;;;5.32;3.20;;;20.40;99.90;;;;;;5033579;28;20037;-71
2022/08/25 05:50:57;;;;;;;5.20;3.22;;;20.30;99.90;;;;;;5034468;28;20037;-72
2022/08/25 05:53:24;;;;;;;4.68;3.08;;;20.60;99.90;;;;;;5016620;28;20042;-71
2022/08/25 05:55:52;;;;;;;4.95;3.15;;;20.50;99.90;;;;;;5027042;28;20313;-71
2022/08/25 05:58:18;;;;;;;4.40;3.13;;;20.90;99.90;;;;;;5039403;28;20434;-71
2022/08/25 06:00:44;;;;;;;7.70;3.10;;;20.80;99.90;;;;;;5027885;28;20041;-71
2022/08/25 06:03:09;;;;;;;7.20;2.97;;;20.70;99.90;;;;;;5029474;28;20495;-71
2022/08/25 06:05:35;;;;;;;4.93;3.20;;;21.50;99.90;;;;;;5017271;28;20246;-72
2022/08/25 06:08:01;;;;;;;4.93;3.10;;;20.90;99.90;;;;;;5038967;28;20041;-71
2022/08/25 06:10:27;;;;;;;7.20;3.00;;;20.90;99.90;;;;;;5028320;28;20414;-71
2022/08/25 06:12:53;;;;;;;5.57;3.10;;;21.10;99.90;;;;;;5026337;28;20042;-71
2022/08/25 06:15:21;;;;;;;8.65;3.83;;;21.00;99.90;;;;;;5026661;28;20072;-71
2022/08/25 06:17:51;;;;;;;6.32;3.20;;;21.10;99.90;;;;;;5035748;28;20486;-71
2022/08/25 06:20:21;;;;;;;4.10;2.88;;;21.10;99.90;;;;;;5045645;28;20514;-71
2022/08/25 06:22:47;;;;;;;7.32;3.42;;;21.10;99.90;;;;;;5020877;28;20037;-71
2022/08/25 06:25:15;;;;;;;5.68;2.90;;;21.30;99.90;;;;;;5019223;28;20069;-71
2022/08/25 06:27:41;;;;;;;6.22;3.10;;;21.30;99.90;;;;;;5019096;28;20033;-72
2022/08/25 06:30:09;;;;;;;6.38;3.22;;;21.50;99.90;;;;;;5021170;28;20466;-72
2022/08/25 06:32:37;;;;;;;5.03;2.90;;;21.50;99.90;;;;;;5020085;28;20038;-72
2022/08/25 06:35:04;;;;;;;6.90;3.28;;;21.60;99.90;;;;;;5019629;28;20038;-72
2022/08/25 06:37:30;;;;;;;4.75;3.25;;;21.50;99.90;;;;;;5021776;28;20124;-72
2022/08/25 06:39:56;;;;;;;4.45;3.15;;;21.90;99.90;;;;;;5019759;28;20141;-72
2022/08/25 06:42:21;;;;;;;3.83;2.80;;;21.60;99.90;;;;;;5020120;28;20038;-72
2022/08/25 06:44:47;;;;;;;11.52;3.47;;;22.00;99.90;;;;;;5023031;28;20129;-72
2022/08/25 06:47:14;;;;;;;5.38;3.15;;;21.80;99.90;;;;;;5025717;28;20033;-72
2022/08/25 06:49:41;;;;;;;9.05;3.33;;;22.10;99.90;;;;;;5030712;28;20033;-71
2022/08/25 06:52:07;;;;;;;5.63;3.20;;;22.70;99.90;;;;;;5024846;28;20037;-72
2022/08/25 06:54:33;;;;;;;9.10;3.15;;;22.70;99.90;;;;;;5032588;28;20039;-72
2022/08/25 06:56:59;;;;;;;4.95;2.90;;;22.30;99.90;;;;;;5033028;28;20128;-72
2022/08/25 06:59:26;;;;;;;7.43;3.20;;;22.10;99.90;;;;;;5032365;28;20076;-72
2022/08/25 07:01:51;;;;;;;6.57;3.10;;;22.70;99.90;;;;;;5033204;28;20042;-72
2022/08/25 07:04:17;;;;;;;5.25;3.50;;;22.70;99.90;;;;;;5025344;28;20038;-72
2022/08/25 07:06:43;;;;;;;4.28;3.25;;;22.70;99.90;;;;;;5012305;28;20038;-72
2022/08/25 07:09:10;;;;;;;6.80;3.28;;;22.60;99.90;;;;;;5013799;28;20076;-72
2022/08/25 07:11:35;;;;;;;8.55;3.33;;;22.80;99.90;;;;;;5035874;28;20037;-72
2022/08/25 07:14:03;;;;;;;6.28;3.63;;;23.60;99.90;;;;;;5034607;28;20038;-71
2022/08/25 07:16:30;;;;;;;11.05;3.60;;;23.00;99.90;;;;;;5035708;28;20054;-72
2022/08/25 07:18:56;;;;;;;8.20;3.15;;;23.10;99.90;;;;;;5051157;28;20040;-72
2022/08/25 07:21:23;;;;;;;8.50;3.50;;;23.10;99.90;;;;;;5032731;28;20040;-72
2022/08/25 07:23:49;;;;;;;8.48;3.35;;;23.20;99.90;;;;;;5014966;28;20112;-72
2022/08/25 07:26:25;;;;;;;6.40;3.58;;;23.30;99.90;;;;;;5033286;28;20044;-72
2022/08/25 07:28:51;;;;;;;8.00;3.42;;;23.70;99.90;;;;;;5032501;28;20050;-72
2022/08/25 07:31:16;;;;;;;4.32;2.90;;;23.70;99.90;;;;;;5033508;28;20041;-72
2022/08/25 07:35:14;;;;;;;6.18;3.70;;;23.60;99.90;;;;;;5033243;28;20444;-72
2022/08/25 07:36:30;;;;;;;6.47;3.33;;;23.50;99.90;;;;;;5030033;28;20119;-72
2022/08/25 07:38:59;;;;;;;6.88;3.80;;;23.70;99.90;;;;;;5033591;28;20048;-72
2022/08/25 07:41:25;;;;;;;5.78;2.88;;;23.80;99.90;;;;;;5015428;28;20061;-73
2022/08/25 07:43:51;;;;;;;5.22;3.08;;;24.40;99.90;;;;;;5012589;28;20085;-72
2022/08/25 07:46:17;;;;;;;5.10;3.15;;;24.00;99.90;;;;;;5022441;28;20618;-73
2022/08/25 07:48:43;;;;;;;5.30;3.00;;;24.00;99.90;;;;;;5030521;28;20112;-73
2022/08/25 07:51:13;;;;;;;8.30;2.92;;;24.00;99.90;;;;;;5032173;28;20633;-73
2022/08/25 07:53:39;;;;;;;8.35;2.72;;;24.10;99.90;;;;;;5029951;28;20045;-73
2022/08/25 07:56:13;;;;;;;7.03;2.90;;;24.30;99.90;;;;;;5011212;28;20042;-73
2022/08/25 07:58:40;;;;;;;9.52;3.65;;;24.30;99.90;;;;;;5012392;28;20708;-73
2022/08/25 08:01:12;;;;;;;8.10;3.80;;;24.50;99.90;;;;;;5021752;28;20049;-73
2022/08/25 08:03:37;;;;;;;9.40;3.30;;;24.50;99.90;;;;;;5017047;28;20103;-73
2022/08/25 08:06:08;;;;;;;8.40;3.55;;;25.50;99.90;;;;;;5014218;28;20046;-72
2022/08/25 08:08:35;;;;;;;4.85;2.78;;;24.60;99.90;;;;;;5023834;28;20060;-73
2022/08/25 08:11:01;;;;;;;7.22;3.60;;;26.00;99.90;;;;;;4995797;28;20042;-73
2022/08/25 08:13:26;;;;;;;14.15;3.85;;;25.00;99.90;;;;;;5023172;28;20087;-73
2022/08/25 08:15:52;;;;;;;7.32;2.85;;;25.00;99.90;;;;;;5033195;28;20041;-73
2022/08/25 08:18:18;;;;;;;5.47;3.00;;;25.00;99.90;;;;;;5023633;28;20038;-73
2022/08/25 08:20:46;;;;;;;12.27;3.25;;;25.40;99.90;;;;;;5035868;28;20049;-73
2022/08/25 08:23:12;;;;;;;5.70;3.80;;;25.40;99.90;;;;;;5048475;28;20045;-73
2022/08/25 08:25:37;;;;;;;7.00;2.83;;;25.50;99.80;;;;;;5035282;28;20124;-73
2022/08/25 08:28:03;;;;;;;9.27;3.05;;;25.30;99.70;;;;;;5030750;28;20638;-73
2022/08/25 08:30:29;;;;;;;7.00;3.03;;;25.50;99.70;;;;;;5022105;28;20079;-74
2022/08/25 08:32:55;;;;;;;5.50;2.95;;;25.40;99.80;;;;;;5031071;28;20195;-73
2022/08/25 08:35:20;;;;;;;10.27;3.35;;;25.70;99.90;;;;;;5030683;28;20049;-73
2022/08/25 08:37:46;;;;;;;4.85;2.92;;;25.80;99.50;;;;;;5031705;28;20045;-73
2022/08/25 08:40:17;;;;;;;4.30;3.15;;;25.80;99.80;;;;;;5032487;28;20037;-73
2022/08/25 08:42:54;;;;;;;4.95;2.97;;;25.80;99.60;;;;;;5025190;28;20087;-72
2022/08/25 08:45:33;;;;;;;7.65;2.95;;;25.90;99.10;;;;;;5016584;28;20440;-73
2022/08/25 08:48:37;;;;;;;10.02;2.80;;;26.00;98.90;;;;;;5020116;28;20053;-72
2022/08/25 08:51:17;;;;;;;6.72;3.00;;;26.10;98.80;;;;;;5032585;28;20072;-72
2022/08/25 08:53:49;;;;;;;6.05;2.75;;;26.30;99.20;;;;;;5031392;28;20076;-72
2022/08/25 08:56:33;;;;;;;3.95;2.60;;;26.60;99.70;;;;;;5031686;28;20047;-72
2022/08/25 08:59:04;;;;;;;5.90;2.92;;;26.60;98.70;;;;;;5031605;28;20087;-72
2022/08/25 09:01:34;;;;;;;8.48;2.75;;;26.70;98.90;;;;;;5015763;28;20042;-73
2022/08/25 09:04:28;;;;;;;5.80;2.85;;;26.90;99.20;;;;;;5010628;28;20042;-72
2022/08/25 09:06:55;;;;;;;6.90;2.92;;;26.80;98.30;;;;;;5011000;28;20108;-72
2022/08/25 09:09:32;;;;;;;5.13;2.88;;;27.40;99.10;;;;;;5010939;28;20068;-72
2022/08/25 09:12:01;;;;;;;8.40;3.40;;;28.10;99.00;;;;;;5022433;28;20495;-72
2022/08/25 09:14:48;;;;;;;4.15;2.20;;;26.90;97.80;;;;;;5031286;28;20045;-72
2022/08/25 09:17:35;;;;;;;4.22;2.55;;;27.10;98.10;;;;;;5018454;28;20384;-72
2022/08/25 09:20:39;;;;;;;5.88;2.80;;;27.10;98.00;;;;;;5011503;28;20041;-72
2022/08/25 09:23:22;;;;;;;;;;;27.30;99.30;;;;;;5010383;28;20038;-73
2022/08/25 09:25:51;;;;;;;;;;;27.40;99.40;;;;;;5010680;28;19964;-73
2022/08/25 09:28:43;;;;;;;8.07;3.17;;;27.50;98.80;;;;;;5013275;28;20421;-72
2022/08/25 09:31:32;;;;;;;8.50;3.03;;;27.70;99.80;;;;;;5030272;28;20534;-72
2022/08/25 09:34:01;;;;;;;6.97;2.50;;;27.90;98.10;;;;;;5022006;28;20045;-72
2022/08/25 09:36:27;;;;;;;8.05;2.78;;;28.20;97.40;;;;;;5026444;28;20041;-73
2022/08/25 09:38:54;;;;;;;5.30;2.30;;;28.20;97.30;;;;;;5030551;28;20128;-73
2022/08/25 09:41:41;;;;;;;5.15;2.15;;;28.20;96.70;;;;;;5029926;28;20466;-72
2022/08/25 09:44:23;;;;;;;4.68;2.58;;;28.30;96.70;;;;;;5030180;28;20048;-72
2022/08/25 09:46:54;;;;;;;6.00;2.35;;;28.40;95.80;;;;;;5031223;28;20040;-73
2022/08/25 09:49:20;;;;;;;5.13;2.42;;;28.20;95.70;;;;;;4994529;28;20569;-73
2022/08/25 09:51:46;;;;;;;4.40;2.33;;;28.40;95.90;;;;;;5010747;28;20045;-73
2022/08/25 09:54:11;;;;;;;5.45;2.28;;;28.20;95.70;;;;;;5016141;28;20516;-72
2022/08/25 09:56:58;;;;;;;4.07;2.30;;;28.40;95.30;;;;;;5028649;28;20041;-73
2022/08/25 09:59:33;;;;;;;7.35;2.25;;;28.40;95.10;;;;;;5020759;28;20046;-73
2022/08/25 10:02:19;;;;;;;4.97;1.90;;;28.60;95.30;;;;;;5033525;28;20052;-73
2022/08/25 10:04:45;;;;;;;3.30;1.77;;;28.60;95.10;;;;;;5013970;28;20038;-72
2022/08/25 10:07:25;;;;;;;4.57;2.45;;;30.00;95.40;;;;;;5018269;28;20030;-72
2022/08/25 10:09:54;;;;;;;3.88;2.10;;;28.80;94.70;;;;;;5037385;28;20503;-73
2022/08/25 10:12:34;;;;;;;3.70;2.10;;;28.80;94.70;;;;;;5022453;28;20248;-73
2022/08/25 10:15:16;;;;;;;5.93;2.03;;;28.90;94.70;;;;;;5019523;28;20053;-73
2022/08/25 10:17:42;;;;;;;;;;;28.80;94.40;;;;;;5037618;28;20033;-73
2022/08/25 10:20:18;;;;;;;5.30;2.63;;;28.90;94.90;;;;;;5033548;28;19967;-73
2022/08/25 10:22:46;;;;;;;5.97;2.47;;;29.00;94.40;;;;;;5033967;28;20045;-72
2022/08/25 10:25:15;;;;;;;6.30;2.30;;;29.50;94.90;;;;;;5025344;28;20103;-72
2022/08/25 10:27:43;;;;;;;2.17;1.90;;;29.20;95.60;;;;;;5026081;28;20038;-72
2022/08/25 10:30:47;;;;;;;3.88;1.80;;;29.40;95.50;;;;;;5031241;28;20030;-72
2022/08/25 10:33:35;;;;;;;3.00;2.08;;;;;;;;;;5022954;28;20125;-73
2022/08/25 10:36:05;;;;;;;4.60;2.00;;;29.20;93.70;;;;;;5014935;28;20054;-72
2022/08/25 10:38:33;;;;;;;4.43;2.00;;;29.40;94.30;;;;;;5023257;28;20125;-73
2022/08/25 10:41:38;;;;;;;5.22;2.20;;;29.30;93.40;;;;;;5034478;28;20053;-72
2022/08/25 10:47:43;;;;;;;4.97;2.45;;;29.40;93.60;;;;;;5013391;28;20061;-73
2022/08/25 10:50:22;;;;;;;5.10;1.60;;;29.40;93.40;;;;;;5029931;28;20069;-72
2022/08/25 10:53:03;;;;;;;5.80;2.40;;;30.00;93.00;;;;;;5013511;28;20041;-73
2022/08/25 10:55:51;;;;;;;3.85;2.15;;;29.80;93.20;;;;;;5013396;28;20387;-73
2022/08/25 10:58:38;;;;;;;3.30;1.98;;;29.80;93.30;;;;;;5027112;28;20150;-73
2022/08/25 11:01:18;;;;;;;7.72;2.78;;;29.80;93.60;;;;;;5033362;28;20102;-73
2022/08/25 11:04:03;;;;;;;3.33;1.98;;;29.80;93.50;;;;;;5021986;28;20046;-72
2022/08/25 11:06:39;;;;;;;4.13;2.05;;;30.00;93.80;;;;;;5032960;28;20049;-73
2022/08/25 11:09:09;;;;;;;5.10;2.38;;;30.20;94.60;;;;;;5029688;28;20044;-73
2022/08/25 11:11:43;;;;;;;6.50;2.40;;;30.20;94.50;;;;;;5016476;28;20033;-73
2022/08/25 11:14:22;;;;;;;5.82;2.33;;;30.20;94.00;;;;;;5037945;28;20053;-73
2022/08/25 11:17:12;;;;;;;4.03;2.30;;;30.20;93.90;;;;;;5032756;28;20085;-73
2022/08/25 11:19:48;;;;;;;3.60;2.00;;;30.10;93.30;;;;;;5032358;28;20037;-74
2022/08/25 11:22:44;;;;;;;5.75;2.00;;;30.10;94.00;;;;;;5016685;28;20045;-72
2022/08/25 11:25:19;;;;;;;4.40;2.13;;;30.20;93.30;;;;;;5035946;28;20048;-71
2022/08/25 11:27:54;;;;;;;4.50;2.47;;;30.30;93.70;;;;;;5027473;28;20431;-72
2022/08/25 11:30:20;;;;;;;8.23;2.20;;;30.30;93.10;;;;;;5036796;28;20047;-72
2022/08/25 11:32:51;;;;;;;3.88;2.10;;;30.30;93.40;;;;;;5037241;28;20041;-72
2022/08/25 11:35:25;;;;;;;4.40;1.98;;;30.50;93.30;;;;;;5042162;28;20744;-72
2022/08/25 11:38:14;;;;;;;4.97;2.20;;;30.40;93.10;;;;;;5029155;28;20036;-72
2022/08/25 11:41:12;;;;;;;3.30;1.92;;;30.50;92.50;;;;;;5036055;28;20049;-72
2022/08/25 11:44:00;;;;;;;4.45;1.85;;;30.50;92.60;;;;;;5037909;28;20056;-72
2022/08/25 11:46:50;;;;;;;4.93;1.90;;;;;;;;;;5035009;28;20121;-73
2022/08/25 11:49:30;;;;;;;6.45;2.20;;;30.70;99.90;;;;;;5024970;28;20034;-73
2022/08/25 11:51:57;;;;;;;4.03;2.08;;;30.90;94.80;;;;;;5013651;28;20077;-73
2022/08/25 11:54:28;;;;;;;3.08;2.00;;;31.10;97.80;;;;;;5019611;28;20038;-72
2022/08/25 11:57:04;;;;;;;3.28;1.77;;;;;;;;;;5014482;28;20038;-74
2022/08/25 11:59:48;;;;;;;1.70;1.52;;;30.80;91.50;;;;;;5015623;28;20034;-73
2022/08/25 12:02:46;;;;;;;3.92;1.90;;;30.90;92.00;;;;;;5033161;28;20037;-74
2022/08/25 12:05:17;;;;;;;4.10;1.88;;;30.80;91.60;;;;;;5027492;28;20446;-73
2022/08/25 12:07:46;;;;;;;9.05;1.85;;;31.10;92.10;;;;;;5020347;28;20500;-73
2022/08/25 12:10:24;;;;;;;3.25;2.03;;;31.20;92.20;;;;;;5022551;28;20049;-73
2022/08/25 12:13:37;;;;;;;3.33;2.10;;;31.10;91.70;;;;;;5025988;28;20048;-73
2022/08/25 12:16:04;;;;;;;3.42;1.85;;;31.20;91.30;;;;;;5013582;28;20054;-73
2022/08/25 12:18:29;;;;;;;3.00;1.85;;;31.50;91.80;;;;;;5004592;28;20037;-73
2022/08/25 12:20:55;;;;;;;3.78;2.05;;;31.00;91.80;;;;;;5023493;28;20403;-74
2022/08/25 12:23:33;;;;;;;3.53;1.95;;;31.10;91.60;;;;;;5028397;28;20040;-73
2022/08/25 12:26:38;;;;;;;3.88;2.05;;;31.40;91.80;;;;;;5030824;28;20045;-73
2022/08/25 12:29:10;;;;;;;4.47;2.00;;;31.30;91.30;;;;;;5031816;28;20038;-74
2022/08/25 12:31:46;;;;;;;4.15;1.92;;;31.30;91.40;;;;;;5015412;28;20041;-74
2022/08/25 12:34:37;;;;;;;3.53;1.88;;;31.40;91.10;;;;;;5032603;28;20749;-73
2022/08/25 12:37:18;;;;;;;4.75;2.28;;;31.10;90.60;;;;;;5032670;28;20542;-74
2022/08/25 12:39:43;;;;;;;6.18;2.00;;;31.40;91.10;;;;;;5033234;28;20045;-73
2022/08/25 12:42:44;;;;;;;4.53;1.58;;;31.20;90.90;;;;;;5031138;28;20049;-74
2022/08/25 12:45:24;;;;;;;3.05;1.65;;;32.20;90.90;;;;;;5031111;28;20124;-73
2022/08/25 12:47:53;;;;;;;3.53;1.65;;;31.30;89.40;;;;;;5031516;28;20103;-73
2022/08/25 12:50:41;;;;;;;3.08;1.73;;;31.60;90.80;;;;;;5032670;28;20092;-74
2022/08/25 12:53:26;;;;;;;2.45;1.75;;;31.70;90.00;;;;;;5028375;28;20041;-73
2022/08/25 12:56:07;;;;;;;3.17;1.83;;;31.70;90.30;;;;;;5022727;28;20400;-73
2022/08/25 12:59:02;;;;;;;4.53;2.10;;;31.50;90.60;;;;;;5023118;28;20041;-73
2022/08/25 13:01:53;;;;;;;4.38;1.75;;;31.60;90.10;;;;;;5016059;28;20048;-73
2022/08/25 13:04:37;;;;;;;3.30;1.55;;;31.40;89.60;;;;;;5018958;28;20100;-73
2022/08/25 13:07:40;;;;;;;3.85;1.60;;;31.70;89.90;;;;;;4994836;28;20048;-73
2022/08/25 13:10:19;;;;;;;2.60;1.75;;;31.60;89.90;;;;;;5014087;28;20666;-73
2022/08/25 13:13:07;;;;;;;3.17;2.10;;;31.50;90.10;;;;;;5011419;28;20095;-73